sensor_id;sensor_type;location;lat;lon;timestamp;temperature;humidity
7700;DHT22;3892;47.794;19.126;2023-08-08T00:02:03;21.00;45.70
7700;DHT22;3892;47.794;19.126;2023-08-08T00:04:31;21.00;45.80
7700;DHT22;3892;47.794;19.126;2023-08-08T00:06:59;21.00;45.70
7700;DHT22;3892;47.794;19.126;2023-08-08T00:09:27;21.00;45.70
7700;DHT22;3892;47.794;19.126;2023-08-08T00:11:55;21.00;45.80
7700;DHT22;3892;47.794;19.126;2023-08-08T00:14:25;21.00;45.70
7700;DHT22;3892;47.794;19.126;2023-08-08T00:16:53;21.00;45.70
7700;DHT22;3892;47.794;19.126;2023-08-08T00:19:22;21.00;45.60
7700;DHT22;3892;47.794;19.126;2023-08-08T00:21:50;20.90;45.60
7700;DHT22;3892;47.794;19.126;2023-08-08T00:24:18;20.90;45.70
7700;DHT22;3892;47.794;19.126;2023-08-08T00:26:46;20.90;45.80
7700;DHT22;3892;47.794;19.126;2023-08-08T00:29:14;20.90;45.90
7700;DHT22;3892;47.794;19.126;2023-08-08T00:31:42;20.80;45.90
7700;DHT22;3892;47.794;19.126;2023-08-08T00:34:10;20.80;45.80
7700;DHT22;3892;47.794;19.126;2023-08-08T00:36:40;20.80;45.90
7700;DHT22;3892;47.794;19.126;2023-08-08T00:39:08;20.80;46.10
7700;DHT22;3892;47.794;19.126;2023-08-08T00:41:36;20.80;46.00
7700;DHT22;3892;47.794;19.126;2023-08-08T00:44:04;20.80;45.90
7700;DHT22;3892;47.794;19.126;2023-08-08T00:46:32;20.80;45.90
7700;DHT22;3892;47.794;19.126;2023-08-08T00:49:00;20.80;45.80
7700;DHT22;3892;47.794;19.126;2023-08-08T00:51:29;20.80;45.70
7700;DHT22;3892;47.794;19.126;2023-08-08T00:53:58;20.80;45.70
7700;DHT22;3892;47.794;19.126;2023-08-08T00:56:27;20.80;45.70
7700;DHT22;3892;47.794;19.126;2023-08-08T00:58:55;20.70;45.60
7700;DHT22;3892;47.794;19.126;2023-08-08T01:01:23;20.70;45.70
7700;DHT22;3892;47.794;19.126;2023-08-08T01:03:51;20.60;45.70
7700;DHT22;3892;47.794;19.126;2023-08-08T01:06:23;20.60;45.80
7700;DHT22;3892;47.794;19.126;2023-08-08T01:09:00;20.60;45.90
7700;DHT22;3892;47.794;19.126;2023-08-08T01:11:32;20.40;45.80
7700;DHT22;3892;47.794;19.126;2023-08-08T01:14:02;20.50;46.10
7700;DHT22;3892;47.794;19.126;2023-08-08T01:16:31;20.50;46.10
7700;DHT22;3892;47.794;19.126;2023-08-08T01:19:00;20.50;46.00
7700;DHT22;3892;47.794;19.126;2023-08-08T01:21:29;20.50;46.00
7700;DHT22;3892;47.794;19.126;2023-08-08T01:24:12;20.40;46.00
7700;DHT22;3892;47.794;19.126;2023-08-08T01:26:40;20.40;46.10
7700;DHT22;3892;47.794;19.126;2023-08-08T01:29:08;20.40;46.10
7700;DHT22;3892;47.794;19.126;2023-08-08T01:31:36;20.40;46.20
7700;DHT22;3892;47.794;19.126;2023-08-08T01:34:04;20.40;46.40
7700;DHT22;3892;47.794;19.126;2023-08-08T01:36:40;20.20;46.20
7700;DHT22;3892;47.794;19.126;2023-08-08T01:39:17;20.40;46.40
7700;DHT22;3892;47.794;19.126;2023-08-08T01:41:47;20.40;46.40
7700;DHT22;3892;47.794;19.126;2023-08-08T01:44:16;20.40;46.10
7700;DHT22;3892;47.794;19.126;2023-08-08T01:46:45;20.40;46.00
7700;DHT22;3892;47.794;19.126;2023-08-08T01:49:13;20.40;46.10
7700;DHT22;3892;47.794;19.126;2023-08-08T01:51:41;20.40;46.00
7700;DHT22;3892;47.794;19.126;2023-08-08T01:54:09;20.40;46.00
7700;DHT22;3892;47.794;19.126;2023-08-08T01:56:39;20.40;46.00
7700;DHT22;3892;47.794;19.126;2023-08-08T01:59:07;20.40;46.10
7700;DHT22;3892;47.794;19.126;2023-08-08T02:01:35;20.40;46.20
7700;DHT22;3892;47.794;19.126;2023-08-08T02:04:04;20.40;46.10
7700;DHT22;3892;47.794;19.126;2023-08-08T02:06:32;20.40;46.10
7700;DHT22;3892;47.794;19.126;2023-08-08T02:09:00;20.40;46.10
7700;DHT22;3892;47.794;19.126;2023-08-08T02:11:28;20.30;46.00
7700;DHT22;3892;47.794;19.126;2023-08-08T02:13:57;20.30;46.00
7700;DHT22;3892;47.794;19.126;2023-08-08T02:16:25;20.30;45.90
7700;DHT22;3892;47.794;19.126;2023-08-08T02:18:53;20.30;45.90
7700;DHT22;3892;47.794;19.126;2023-08-08T02:21:21;20.30;45.90
7700;DHT22;3892;47.794;19.126;2023-08-08T02:23:50;20.20;46.00
7700;DHT22;3892;47.794;19.126;2023-08-08T02:26:18;20.10;46.60
7700;DHT22;3892;47.794;19.126;2023-08-08T02:28:46;20.20;46.20
7700;DHT22;3892;47.794;19.126;2023-08-08T02:31:15;20.20;46.10
7700;DHT22;3892;47.794;19.126;2023-08-08T02:33:48;20.20;46.00
7700;DHT22;3892;47.794;19.126;2023-08-08T02:36:16;20.10;46.10
7700;DHT22;3892;47.794;19.126;2023-08-08T02:38:44;20.10;46.20
7700;DHT22;3892;47.794;19.126;2023-08-08T02:41:12;20.10;46.20
7700;DHT22;3892;47.794;19.126;2023-08-08T02:43:40;20.10;46.20
7700;DHT22;3892;47.794;19.126;2023-08-08T02:46:08;20.10;46.10
7700;DHT22;3892;47.794;19.126;2023-08-08T02:48:38;20.10;46.10
7700;DHT22;3892;47.794;19.126;2023-08-08T02:51:06;20.10;46.10
7700;DHT22;3892;47.794;19.126;2023-08-08T02:53:34;20.10;46.10
7700;DHT22;3892;47.794;19.126;2023-08-08T02:56:02;20.10;46.20
7700;DHT22;3892;47.794;19.126;2023-08-08T02:58:30;20.00;46.30
7700;DHT22;3892;47.794;19.126;2023-08-08T03:00:58;20.00;46.30
7700;DHT22;3892;47.794;19.126;2023-08-08T03:03:26;20.00;46.20
7700;DHT22;3892;47.794;19.126;2023-08-08T03:05:56;20.00;46.10
7700;DHT22;3892;47.794;19.126;2023-08-08T03:08:24;20.00;46.20
7700;DHT22;3892;47.794;19.126;2023-08-08T03:10:54;20.00;46.10
7700;DHT22;3892;47.794;19.126;2023-08-08T03:13:22;19.90;46.30
7700;DHT22;3892;47.794;19.126;2023-08-08T03:15:50;19.90;46.40
7700;DHT22;3892;47.794;19.126;2023-08-08T03:18:18;19.90;46.20
7700;DHT22;3892;47.794;19.126;2023-08-08T03:20:46;19.90;46.20
7700;DHT22;3892;47.794;19.126;2023-08-08T03:23:16;19.90;46.20
7700;DHT22;3892;47.794;19.126;2023-08-08T03:25:44;19.90;46.20
7700;DHT22;3892;47.794;19.126;2023-08-08T03:28:12;19.90;46.30
7700;DHT22;3892;47.794;19.126;2023-08-08T03:30:40;19.90;46.30
7700;DHT22;3892;47.794;19.126;2023-08-08T03:33:08;19.90;46.30
7700;DHT22;3892;47.794;19.126;2023-08-08T03:35:36;20.00;46.20
7700;DHT22;3892;47.794;19.126;2023-08-08T03:38:04;20.00;46.30
7700;DHT22;3892;47.794;19.126;2023-08-08T03:40:35;20.00;46.10
7700;DHT22;3892;47.794;19.126;2023-08-08T03:43:03;20.10;46.20
7700;DHT22;3892;47.794;19.126;2023-08-08T03:45:32;20.00;46.20
7700;DHT22;3892;47.794;19.126;2023-08-08T03:48:00;20.00;46.30
7700;DHT22;3892;47.794;19.126;2023-08-08T03:50:28;20.00;46.50
7700;DHT22;3892;47.794;19.126;2023-08-08T03:52:56;19.90;46.50
7700;DHT22;3892;47.794;19.126;2023-08-08T03:55:24;19.90;46.60
7700;DHT22;3892;47.794;19.126;2023-08-08T03:57:54;19.90;46.70
7700;DHT22;3892;47.794;19.126;2023-08-08T04:00:22;19.80;46.60
7700;DHT22;3892;47.794;19.126;2023-08-08T04:02:50;19.80;46.70
7700;DHT22;3892;47.794;19.126;2023-08-08T04:05:18;19.80;46.70
7700;DHT22;3892;47.794;19.126;2023-08-08T04:07:46;19.80;46.70
7700;DHT22;3892;47.794;19.126;2023-08-08T04:10:15;19.80;46.80
7700;DHT22;3892;47.794;19.126;2023-08-08T04:12:43;19.80;46.80
7700;DHT22;3892;47.794;19.126;2023-08-08T04:15:13;19.80;46.80
7700;DHT22;3892;47.794;19.126;2023-08-08T04:17:41;19.80;46.80
7700;DHT22;3892;47.794;19.126;2023-08-08T04:20:09;19.80;46.90
7700;DHT22;3892;47.794;19.126;2023-08-08T04:22:38;19.80;46.80
7700;DHT22;3892;47.794;19.126;2023-08-08T04:25:06;19.70;46.80
7700;DHT22;3892;47.794;19.126;2023-08-08T04:27:35;19.70;46.90
7700;DHT22;3892;47.794;19.126;2023-08-08T04:30:03;19.70;46.90
7700;DHT22;3892;47.794;19.126;2023-08-08T04:32:33;19.60;47.00
7700;DHT22;3892;47.794;19.126;2023-08-08T04:35:01;19.70;47.10
7700;DHT22;3892;47.794;19.126;2023-08-08T04:37:29;19.70;47.20
7700;DHT22;3892;47.794;19.126;2023-08-08T04:39:57;19.70;47.10
7700;DHT22;3892;47.794;19.126;2023-08-08T04:42:25;19.70;47.20
7700;DHT22;3892;47.794;19.126;2023-08-08T04:44:53;19.80;47.30
7700;DHT22;3892;47.794;19.126;2023-08-08T04:47:21;19.80;47.00
7700;DHT22;3892;47.794;19.126;2023-08-08T04:49:51;19.90;46.90
7700;DHT22;3892;47.794;19.126;2023-08-08T04:52:19;19.90;46.90
7700;DHT22;3892;47.794;19.126;2023-08-08T04:54:47;19.90;47.00
7700;DHT22;3892;47.794;19.126;2023-08-08T04:57:15;19.90;47.00
7700;DHT22;3892;47.794;19.126;2023-08-08T04:59:43;19.90;46.90
7700;DHT22;3892;47.794;19.126;2023-08-08T05:02:11;19.90;46.90
7700;DHT22;3892;47.794;19.126;2023-08-08T05:04:39;19.90;47.30
7700;DHT22;3892;47.794;19.126;2023-08-08T05:07:09;19.90;46.90
7700;DHT22;3892;47.794;19.126;2023-08-08T05:09:37;19.90;46.90
7700;DHT22;3892;47.794;19.126;2023-08-08T05:12:05;19.90;46.90
7700;DHT22;3892;47.794;19.126;2023-08-08T05:14:34;19.90;47.00
7700;DHT22;3892;47.794;19.126;2023-08-08T05:17:02;20.00;47.00
7700;DHT22;3892;47.794;19.126;2023-08-08T05:19:30;20.00;47.10
7700;DHT22;3892;47.794;19.126;2023-08-08T05:21:59;20.00;47.30
7700;DHT22;3892;47.794;19.126;2023-08-08T05:24:29;20.00;47.10
7700;DHT22;3892;47.794;19.126;2023-08-08T05:26:57;20.00;47.10
7700;DHT22;3892;47.794;19.126;2023-08-08T05:29:25;19.90;47.00
7700;DHT22;3892;47.794;19.126;2023-08-08T05:31:53;20.00;47.20
7700;DHT22;3892;47.794;19.126;2023-08-08T05:34:23;20.10;47.30
7700;DHT22;3892;47.794;19.126;2023-08-08T05:36:51;20.00;47.20
7700;DHT22;3892;47.794;19.126;2023-08-08T05:39:29;20.10;47.20
7700;DHT22;3892;47.794;19.126;2023-08-08T05:41:57;20.20;47.40
7700;DHT22;3892;47.794;19.126;2023-08-08T05:44:25;20.20;47.20
7700;DHT22;3892;47.794;19.126;2023-08-08T05:46:53;20.20;46.90
7700;DHT22;3892;47.794;19.126;2023-08-08T05:49:21;20.30;47.00
7700;DHT22;3892;47.794;19.126;2023-08-08T05:51:50;20.30;47.00
7700;DHT22;3892;47.794;19.126;2023-08-08T05:54:18;20.40;47.00
7700;DHT22;3892;47.794;19.126;2023-08-08T05:56:47;20.40;46.70
7700;DHT22;3892;47.794;19.126;2023-08-08T05:59:15;20.40;46.70
7700;DHT22;3892;47.794;19.126;2023-08-08T06:01:43;20.50;46.70
7700;DHT22;3892;47.794;19.126;2023-08-08T06:04:11;20.60;46.60
7700;DHT22;3892;47.794;19.126;2023-08-08T06:06:40;20.60;46.60
7700;DHT22;3892;47.794;19.126;2023-08-08T06:09:08;20.70;46.30
7700;DHT22;3892;47.794;19.126;2023-08-08T06:11:37;20.80;48.60
7700;DHT22;3892;47.794;19.126;2023-08-08T06:14:06;20.90;47.30
7700;DHT22;3892;47.794;19.126;2023-08-08T06:16:34;20.90;46.40
7700;DHT22;3892;47.794;19.126;2023-08-08T06:19:02;20.80;46.10
7700;DHT22;3892;47.794;19.126;2023-08-08T06:21:31;20.80;45.80
7700;DHT22;3892;47.794;19.126;2023-08-08T06:23:59;20.80;46.10
7700;DHT22;3892;47.794;19.126;2023-08-08T06:26:27;20.90;46.10
7700;DHT22;3892;47.794;19.126;2023-08-08T06:28:55;20.90;46.00
7700;DHT22;3892;47.794;19.126;2023-08-08T06:31:25;20.90;46.10
7700;DHT22;3892;47.794;19.126;2023-08-08T06:33:53;21.00;46.30
7700;DHT22;3892;47.794;19.126;2023-08-08T06:36:21;21.10;46.10
7700;DHT22;3892;47.794;19.126;2023-08-08T06:38:49;21.20;45.60
7700;DHT22;3892;47.794;19.126;2023-08-08T06:41:17;21.20;45.00
7700;DHT22;3892;47.794;19.126;2023-08-08T06:43:45;21.30;45.30
7700;DHT22;3892;47.794;19.126;2023-08-08T06:46:13;21.50;45.40
7700;DHT22;3892;47.794;19.126;2023-08-08T06:48:43;21.50;45.30
7700;DHT22;3892;47.794;19.126;2023-08-08T06:51:12;21.60;45.30
7700;DHT22;3892;47.794;19.126;2023-08-08T06:53:40;21.70;45.20
7700;DHT22;3892;47.794;19.126;2023-08-08T06:56:08;21.70;44.70
7700;DHT22;3892;47.794;19.126;2023-08-08T06:58:36;21.80;44.50
7700;DHT22;3892;47.794;19.126;2023-08-08T07:01:05;21.90;44.70
7700;DHT22;3892;47.794;19.126;2023-08-08T07:03:33;21.90;44.10
7700;DHT22;3892;47.794;19.126;2023-08-08T07:06:03;22.00;44.90
7700;DHT22;3892;47.794;19.126;2023-08-08T07:08:31;22.00;44.30
7700;DHT22;3892;47.794;19.126;2023-08-08T07:10:59;22.10;44.40
7700;DHT22;3892;47.794;19.126;2023-08-08T07:13:27;22.00;43.60
7700;DHT22;3892;47.794;19.126;2023-08-08T07:15:55;21.90;43.30
7700;DHT22;3892;47.794;19.126;2023-08-08T07:18:23;22.00;43.60
7700;DHT22;3892;47.794;19.126;2023-08-08T07:20:51;22.10;43.90
7700;DHT22;3892;47.794;19.126;2023-08-08T07:23:20;22.10;44.20
7700;DHT22;3892;47.794;19.126;2023-08-08T07:25:49;22.20;44.30
7700;DHT22;3892;47.794;19.126;2023-08-08T07:28:17;22.10;43.40
7700;DHT22;3892;47.794;19.126;2023-08-08T07:30:45;22.20;43.80
7700;DHT22;3892;47.794;19.126;2023-08-08T07:33:13;22.20;44.30
7700;DHT22;3892;47.794;19.126;2023-08-08T07:35:41;22.30;44.80
7700;DHT22;3892;47.794;19.126;2023-08-08T07:38:09;22.30;44.20
7700;DHT22;3892;47.794;19.126;2023-08-08T07:40:39;22.30;44.40
7700;DHT22;3892;47.794;19.126;2023-08-08T07:43:08;22.40;43.80
7700;DHT22;3892;47.794;19.126;2023-08-08T07:45:36;22.40;43.30
7700;DHT22;3892;47.794;19.126;2023-08-08T07:48:04;22.50;43.30
7700;DHT22;3892;47.794;19.126;2023-08-08T07:50:33;22.50;43.00
7700;DHT22;3892;47.794;19.126;2023-08-08T07:53:01;22.40;43.00
7700;DHT22;3892;47.794;19.126;2023-08-08T07:55:29;22.50;43.50
7700;DHT22;3892;47.794;19.126;2023-08-08T07:57:59;22.50;43.70
7700;DHT22;3892;47.794;19.126;2023-08-08T08:00:27;22.50;43.80
7700;DHT22;3892;47.794;19.126;2023-08-08T08:02:55;22.50;43.90
7700;DHT22;3892;47.794;19.126;2023-08-08T08:05:23;22.60;43.60
7700;DHT22;3892;47.794;19.126;2023-08-08T08:07:51;22.50;42.70
7700;DHT22;3892;47.794;19.126;2023-08-08T08:10:19;22.60;42.40
7700;DHT22;3892;47.794;19.126;2023-08-08T08:12:47;22.60;42.50
7700;DHT22;3892;47.794;19.126;2023-08-08T08:15:16;22.70;43.60
7700;DHT22;3892;47.794;19.126;2023-08-08T08:17:45;22.80;43.70
7700;DHT22;3892;47.794;19.126;2023-08-08T08:20:13;22.90;42.80
7700;DHT22;3892;47.794;19.126;2023-08-08T08:22:41;22.90;43.00
7700;DHT22;3892;47.794;19.126;2023-08-08T08:25:09;22.90;42.70
7700;DHT22;3892;47.794;19.126;2023-08-08T08:27:37;22.90;42.30
7700;DHT22;3892;47.794;19.126;2023-08-08T08:30:07;22.90;42.50
7700;DHT22;3892;47.794;19.126;2023-08-08T08:32:40;22.90;42.60
7700;DHT22;3892;47.794;19.126;2023-08-08T08:35:09;22.90;42.80
7700;DHT22;3892;47.794;19.126;2023-08-08T08:37:39;23.00;43.60
7700;DHT22;3892;47.794;19.126;2023-08-08T08:40:08;22.90;42.70
7700;DHT22;3892;47.794;19.126;2023-08-08T08:42:38;23.00;43.50
7700;DHT22;3892;47.794;19.126;2023-08-08T08:45:08;23.10;43.70
7700;DHT22;3892;47.794;19.126;2023-08-08T08:47:40;23.20;43.50
7700;DHT22;3892;47.794;19.126;2023-08-08T08:50:09;23.10;43.00
7700;DHT22;3892;47.794;19.126;2023-08-08T08:52:38;23.30;42.60
7700;DHT22;3892;47.794;19.126;2023-08-08T08:55:07;23.30;42.20
7700;DHT22;3892;47.794;19.126;2023-08-08T08:57:36;23.40;42.70
7700;DHT22;3892;47.794;19.126;2023-08-08T09:00:06;23.40;42.80
7700;DHT22;3892;47.794;19.126;2023-08-08T09:02:34;23.50;42.00
7700;DHT22;3892;47.794;19.126;2023-08-08T09:05:05;23.60;42.30
7700;DHT22;3892;47.794;19.126;2023-08-08T09:07:35;23.70;42.50
7700;DHT22;3892;47.794;19.126;2023-08-08T09:10:04;23.70;42.00
7700;DHT22;3892;47.794;19.126;2023-08-08T09:12:34;23.80;42.50
7700;DHT22;3892;47.794;19.126;2023-08-08T09:15:03;23.90;42.60
7700;DHT22;3892;47.794;19.126;2023-08-08T09:17:32;23.80;42.10
7700;DHT22;3892;47.794;19.126;2023-08-08T09:20:10;23.80;41.40
7700;DHT22;3892;47.794;19.126;2023-08-08T09:22:39;23.70;41.40
7700;DHT22;3892;47.794;19.126;2023-08-08T09:25:07;23.80;42.00
7700;DHT22;3892;47.794;19.126;2023-08-08T09:27:36;23.90;42.60
7700;DHT22;3892;47.794;19.126;2023-08-08T09:30:05;24.00;41.70
7700;DHT22;3892;47.794;19.126;2023-08-08T09:32:34;24.10;42.10
7700;DHT22;3892;47.794;19.126;2023-08-08T09:35:03;24.20;41.70
7700;DHT22;3892;47.794;19.126;2023-08-08T09:37:33;24.20;41.30
7700;DHT22;3892;47.794;19.126;2023-08-08T09:40:03;24.10;40.20
7700;DHT22;3892;47.794;19.126;2023-08-08T09:42:32;24.10;40.10
7700;DHT22;3892;47.794;19.126;2023-08-08T09:45:00;24.10;40.50
7700;DHT22;3892;47.794;19.126;2023-08-08T09:47:28;24.00;40.50
7700;DHT22;3892;47.794;19.126;2023-08-08T09:50:00;24.20;39.80
7700;DHT22;3892;47.794;19.126;2023-08-08T09:52:34;24.20;41.00
7700;DHT22;3892;47.794;19.126;2023-08-08T09:55:05;24.30;41.00
7700;DHT22;3892;47.794;19.126;2023-08-08T09:57:33;24.50;40.90
7700;DHT22;3892;47.794;19.126;2023-08-08T10:00:02;24.50;40.50
7700;DHT22;3892;47.794;19.126;2023-08-08T10:02:31;24.60;40.20
7700;DHT22;3892;47.794;19.126;2023-08-08T10:05:01;24.60;40.50
7700;DHT22;3892;47.794;19.126;2023-08-08T10:07:30;24.60;41.90
7700;DHT22;3892;47.794;19.126;2023-08-08T10:09:59;24.70;40.70
7700;DHT22;3892;47.794;19.126;2023-08-08T10:12:27;24.80;40.50
7700;DHT22;3892;47.794;19.126;2023-08-08T10:14:56;24.80;40.70
7700;DHT22;3892;47.794;19.126;2023-08-08T10:17:25;24.70;40.60
7700;DHT22;3892;47.794;19.126;2023-08-08T10:19:54;24.80;39.80
7700;DHT22;3892;47.794;19.126;2023-08-08T10:22:24;24.80;39.90
7700;DHT22;3892;47.794;19.126;2023-08-08T10:24:53;24.70;40.00
7700;DHT22;3892;47.794;19.126;2023-08-08T10:27:31;24.70;40.20
7700;DHT22;3892;47.794;19.126;2023-08-08T10:30:07;24.90;40.10
7700;DHT22;3892;47.794;19.126;2023-08-08T10:32:40;25.00;39.80
7700;DHT22;3892;47.794;19.126;2023-08-08T10:35:09;25.10;40.20
7700;DHT22;3892;47.794;19.126;2023-08-08T10:37:39;25.10;39.00
7700;DHT22;3892;47.794;19.126;2023-08-08T10:40:08;25.30;39.10
7700;DHT22;3892;47.794;19.126;2023-08-08T10:42:43;25.40;40.60
7700;DHT22;3892;47.794;19.126;2023-08-08T10:45:12;25.50;40.60
7700;DHT22;3892;47.794;19.126;2023-08-08T10:47:41;25.60;39.70
7700;DHT22;3892;47.794;19.126;2023-08-08T10:50:11;25.70;40.10
7700;DHT22;3892;47.794;19.126;2023-08-08T10:52:50;25.80;40.00
7700;DHT22;3892;47.794;19.126;2023-08-08T10:55:20;25.80;39.50
7700;DHT22;3892;47.794;19.126;2023-08-08T10:57:58;25.90;39.90
7700;DHT22;3892;47.794;19.126;2023-08-08T11:00:29;26.00;39.80
7700;DHT22;3892;47.794;19.126;2023-08-08T11:02:58;26.00;38.60
7700;DHT22;3892;47.794;19.126;2023-08-08T11:05:29;26.00;38.90
7700;DHT22;3892;47.794;19.126;2023-08-08T11:07:57;26.00;39.00
7700;DHT22;3892;47.794;19.126;2023-08-08T11:10:26;26.10;39.40
7700;DHT22;3892;47.794;19.126;2023-08-08T11:13:00;26.10;39.10
7700;DHT22;3892;47.794;19.126;2023-08-08T11:15:28;26.10;38.90
7700;DHT22;3892;47.794;19.126;2023-08-08T11:17:57;26.10;38.80
7700;DHT22;3892;47.794;19.126;2023-08-08T11:20:29;26.10;37.90
7700;DHT22;3892;47.794;19.126;2023-08-08T11:22:57;26.10;38.20
7700;DHT22;3892;47.794;19.126;2023-08-08T11:25:27;26.20;38.70
7700;DHT22;3892;47.794;19.126;2023-08-08T11:27:57;26.20;38.80
7700;DHT22;3892;47.794;19.126;2023-08-08T11:30:30;26.30;38.90
7700;DHT22;3892;47.794;19.126;2023-08-08T11:32:59;26.20;38.10
7700;DHT22;3892;47.794;19.126;2023-08-08T11:35:30;26.20;38.30
7700;DHT22;3892;47.794;19.126;2023-08-08T11:38:01;26.10;38.20
7700;DHT22;3892;47.794;19.126;2023-08-08T11:40:31;25.90;37.50
7700;DHT22;3892;47.794;19.126;2023-08-08T11:43:00;25.90;37.90
7700;DHT22;3892;47.794;19.126;2023-08-08T11:45:30;25.90;38.70
7700;DHT22;3892;47.794;19.126;2023-08-08T11:48:01;25.90;38.20
7700;DHT22;3892;47.794;19.126;2023-08-08T11:50:29;26.00;38.40
7700;DHT22;3892;47.794;19.126;2023-08-08T11:52:57;26.00;38.40
7700;DHT22;3892;47.794;19.126;2023-08-08T11:55:27;26.10;38.40
7700;DHT22;3892;47.794;19.126;2023-08-08T11:57:56;26.20;38.80
7700;DHT22;3892;47.794;19.126;2023-08-08T12:00:30;26.30;38.50
7700;DHT22;3892;47.794;19.126;2023-08-08T12:03:00;26.30;38.10
7700;DHT22;3892;47.794;19.126;2023-08-08T12:05:36;26.40;38.40
7700;DHT22;3892;47.794;19.126;2023-08-08T12:08:05;26.60;37.80
7700;DHT22;3892;47.794;19.126;2023-08-08T12:10:34;26.70;37.90
7700;DHT22;3892;47.794;19.126;2023-08-08T12:13:02;26.80;37.50
7700;DHT22;3892;47.794;19.126;2023-08-08T12:15:32;26.90;37.60
7700;DHT22;3892;47.794;19.126;2023-08-08T12:18:01;27.00;36.90
7700;DHT22;3892;47.794;19.126;2023-08-08T12:20:30;27.00;36.80
7700;DHT22;3892;47.794;19.126;2023-08-08T12:22:58;27.10;37.30
7700;DHT22;3892;47.794;19.126;2023-08-08T12:25:27;27.20;36.60
7700;DHT22;3892;47.794;19.126;2023-08-08T12:27:55;27.20;36.30
7700;DHT22;3892;47.794;19.126;2023-08-08T12:30:23;27.10;37.10
7700;DHT22;3892;47.794;19.126;2023-08-08T12:32:52;27.20;38.10
7700;DHT22;3892;47.794;19.126;2023-08-08T12:35:21;27.30;37.90
7700;DHT22;3892;47.794;19.126;2023-08-08T12:37:49;27.40;36.70
7700;DHT22;3892;47.794;19.126;2023-08-08T12:40:17;27.50;36.90
7700;DHT22;3892;47.794;19.126;2023-08-08T12:42:45;27.50;36.10
7700;DHT22;3892;47.794;19.126;2023-08-08T12:45:14;27.40;36.90
7700;DHT22;3892;47.794;19.126;2023-08-08T12:47:44;27.50;37.30
7700;DHT22;3892;47.794;19.126;2023-08-08T12:50:14;27.40;36.30
7700;DHT22;3892;47.794;19.126;2023-08-08T12:52:42;27.40;36.30
7700;DHT22;3892;47.794;19.126;2023-08-08T12:55:10;27.30;36.10
7700;DHT22;3892;47.794;19.126;2023-08-08T12:57:38;27.20;35.90
7700;DHT22;3892;47.794;19.126;2023-08-08T13:00:08;27.10;36.30
7700;DHT22;3892;47.794;19.126;2023-08-08T13:02:37;26.90;36.80
7700;DHT22;3892;47.794;19.126;2023-08-08T13:05:06;26.60;36.60
7700;DHT22;3892;47.794;19.126;2023-08-08T13:07:36;26.50;37.20
7700;DHT22;3892;47.794;19.126;2023-08-08T13:10:05;26.40;37.50
7700;DHT22;3892;47.794;19.126;2023-08-08T13:12:33;26.30;38.10
7700;DHT22;3892;47.794;19.126;2023-08-08T13:15:03;26.20;38.70
7700;DHT22;3892;47.794;19.126;2023-08-08T13:17:33;26.10;39.50
7700;DHT22;3892;47.794;19.126;2023-08-08T13:20:01;26.00;39.90
7700;DHT22;3892;47.794;19.126;2023-08-08T13:22:29;25.90;40.50
7700;DHT22;3892;47.794;19.126;2023-08-08T13:24:58;25.80;40.60
7700;DHT22;3892;47.794;19.126;2023-08-08T13:27:34;25.70;40.80
7700;DHT22;3892;47.794;19.126;2023-08-08T13:30:03;25.70;40.30
7700;DHT22;3892;47.794;19.126;2023-08-08T13:32:32;25.60;40.10
7700;DHT22;3892;47.794;19.126;2023-08-08T13:35:00;25.60;39.80
7700;DHT22;3892;47.794;19.126;2023-08-08T13:37:28;25.50;39.80
7700;DHT22;3892;47.794;19.126;2023-08-08T13:39:56;25.50;40.20
7700;DHT22;3892;47.794;19.126;2023-08-08T13:42:24;25.40;40.00
7700;DHT22;3892;47.794;19.126;2023-08-08T13:44:54;25.30;39.80
7700;DHT22;3892;47.794;19.126;2023-08-08T13:47:22;25.30;40.70
7700;DHT22;3892;47.794;19.126;2023-08-08T13:49:51;25.30;40.50
7700;DHT22;3892;47.794;19.126;2023-08-08T13:52:19;25.20;40.20
7700;DHT22;3892;47.794;19.126;2023-08-08T13:54:47;25.20;40.20
7700;DHT22;3892;47.794;19.126;2023-08-08T13:57:15;25.10;40.20
7700;DHT22;3892;47.794;19.126;2023-08-08T13:59:44;25.20;40.40
7700;DHT22;3892;47.794;19.126;2023-08-08T14:02:13;25.10;40.30
7700;DHT22;3892;47.794;19.126;2023-08-08T14:04:41;25.20;40.60
7700;DHT22;3892;47.794;19.126;2023-08-08T14:07:10;25.20;40.80
7700;DHT22;3892;47.794;19.126;2023-08-08T14:09:38;25.20;40.20
7700;DHT22;3892;47.794;19.126;2023-08-08T14:12:06;25.20;40.50
7700;DHT22;3892;47.794;19.126;2023-08-08T14:14:34;25.30;40.80
7700;DHT22;3892;47.794;19.126;2023-08-08T14:17:03;25.30;40.30
7700;DHT22;3892;47.794;19.126;2023-08-08T14:19:32;25.30;39.60
7700;DHT22;3892;47.794;19.126;2023-08-08T14:22:00;25.30;39.70
7700;DHT22;3892;47.794;19.126;2023-08-08T14:24:28;25.30;38.90
7700;DHT22;3892;47.794;19.126;2023-08-08T14:26:56;25.30;39.80
7700;DHT22;3892;47.794;19.126;2023-08-08T14:29:24;25.30;39.50
7700;DHT22;3892;47.794;19.126;2023-08-08T14:31:52;25.30;39.10
7700;DHT22;3892;47.794;19.126;2023-08-08T14:34:28;25.30;39.00
7700;DHT22;3892;47.794;19.126;2023-08-08T14:36:59;25.30;39.10
7700;DHT22;3892;47.794;19.126;2023-08-08T14:39:28;25.40;39.70
7700;DHT22;3892;47.794;19.126;2023-08-08T14:41:57;25.40;39.00
7700;DHT22;3892;47.794;19.126;2023-08-08T14:44:26;25.50;39.10
7700;DHT22;3892;47.794;19.126;2023-08-08T14:46:54;25.50;39.20
7700;DHT22;3892;47.794;19.126;2023-08-08T14:49:22;25.60;39.80
7700;DHT22;3892;47.794;19.126;2023-08-08T14:51:52;25.70;38.20
7700;DHT22;3892;47.794;19.126;2023-08-08T14:54:22;25.70;38.10
7700;DHT22;3892;47.794;19.126;2023-08-08T14:56:50;25.80;38.40
7700;DHT22;3892;47.794;19.126;2023-08-08T14:59:18;25.90;38.10
7700;DHT22;3892;47.794;19.126;2023-08-08T15:01:46;26.00;36.80
7700;DHT22;3892;47.794;19.126;2023-08-08T15:04:14;26.00;35.40
7700;DHT22;3892;47.794;19.126;2023-08-08T15:06:42;26.10;36.30
7700;DHT22;3892;47.794;19.126;2023-08-08T15:09:10;26.30;37.70
7700;DHT22;3892;47.794;19.126;2023-08-08T15:11:41;26.40;37.20
7700;DHT22;3892;47.794;19.126;2023-08-08T15:14:09;26.40;36.20
7700;DHT22;3892;47.794;19.126;2023-08-08T15:16:37;26.50;36.10
7700;DHT22;3892;47.794;19.126;2023-08-08T15:19:05;26.50;36.30
7700;DHT22;3892;47.794;19.126;2023-08-08T15:21:33;26.70;37.00
7700;DHT22;3892;47.794;19.126;2023-08-08T15:24:02;26.70;36.60
7700;DHT22;3892;47.794;19.126;2023-08-08T15:26:30;26.70;36.20
7700;DHT22;3892;47.794;19.126;2023-08-08T15:28:59;26.70;36.40
7700;DHT22;3892;47.794;19.126;2023-08-08T15:31:27;26.80;36.40
7700;DHT22;3892;47.794;19.126;2023-08-08T15:33:56;26.80;36.30
7700;DHT22;3892;47.794;19.126;2023-08-08T15:36:24;26.90;36.40
7700;DHT22;3892;47.794;19.126;2023-08-08T15:38:52;27.00;36.50
7700;DHT22;3892;47.794;19.126;2023-08-08T15:41:20;27.00;36.80
7700;DHT22;3892;47.794;19.126;2023-08-08T15:43:48;27.10;35.90
7700;DHT22;3892;47.794;19.126;2023-08-08T15:46:17;27.10;36.60
7700;DHT22;3892;47.794;19.126;2023-08-08T15:48:45;27.10;37.20
7700;DHT22;3892;47.794;19.126;2023-08-08T15:51:13;27.10;37.60
7700;DHT22;3892;47.794;19.126;2023-08-08T15:53:42;27.10;37.60
7700;DHT22;3892;47.794;19.126;2023-08-08T15:56:10;27.10;37.40